sensor_id;sensor_type;location;lat;lon;timestamp;pressure;altitude;pressure_sealevel;temperature;humidity
70758;BME280;59316;52.964;7.102;2023-05-08T00:05:05;102168.22;;;12.56;nan
70758;BME280;59316;52.964;7.102;2023-05-08T00:10:27;102167.78;;;12.46;nan
70758;BME280;59316;52.964;7.102;2023-05-08T00:15:49;102166.44;;;12.38;nan
70758;BME280;59316;52.964;7.102;2023-05-08T00:21:11;102152.78;;;12.29;nan
70758;BME280;59316;52.964;7.102;2023-05-08T00:26:32;102162.34;;;12.30;nan
70758;BME280;59316;52.964;7.102;2023-05-08T00:31:54;102160.84;;;12.25;nan
70758;BME280;59316;52.964;7.102;2023-05-08T00:37:16;102158.44;;;12.20;nan
70758;BME280;59316;52.964;7.102;2023-05-08T00:42:37;102166.22;;;12.22;nan
70758;BME280;59316;52.964;7.102;2023-05-08T00:48:00;102164.56;;;12.21;nan
70758;BME280;59316;52.964;7.102;2023-05-08T00:53:22;102168.22;;;12.16;nan
70758;BME280;59316;52.964;7.102;2023-05-08T00:58:44;102165.59;;;12.16;nan
70758;BME280;59316;52.964;7.102;2023-05-08T01:04:06;102169.81;;;12.21;nan
70758;BME280;59316;52.964;7.102;2023-05-08T01:09:27;102173.09;;;12.24;nan
70758;BME280;59316;52.964;7.102;2023-05-08T01:32:27;102164.75;;;12.16;nan
70758;BME280;59316;52.964;7.102;2023-05-08T01:38:05;102160.34;;;12.16;nan
70758;BME280;59316;52.964;7.102;2023-05-08T01:49:26;102161.19;;;11.98;nan
70758;BME280;59316;52.964;7.102;2023-05-08T01:54:57;102155.09;;;11.77;nan
70758;BME280;59316;52.964;7.102;2023-05-08T02:00:29;102164.88;;;11.52;nan
70758;BME280;59316;52.964;7.102;2023-05-08T02:05:54;102166.84;;;11.27;nan
70758;BME280;59316;52.964;7.102;2023-05-08T02:11:18;102167.13;;;10.98;nan
70758;BME280;59316;52.964;7.102;2023-05-08T02:16:41;102162.06;;;10.72;nan
70758;BME280;59316;52.964;7.102;2023-05-08T02:22:04;102155.56;;;10.60;nan
70758;BME280;59316;52.964;7.102;2023-05-08T02:27:28;102157.44;;;10.56;nan
70758;BME280;59316;52.964;7.102;2023-05-08T02:32:51;102152.63;;;10.44;nan
70758;BME280;59316;52.964;7.102;2023-05-08T02:38:14;102153.44;;;10.22;nan
70758;BME280;59316;52.964;7.102;2023-05-08T02:43:40;102163.69;;;10.04;nan
70758;BME280;59316;52.964;7.102;2023-05-08T02:49:11;102158.41;;;9.81;nan
70758;BME280;59316;52.964;7.102;2023-05-08T02:55:03;102176.94;;;9.49;nan
70758;BME280;59316;52.964;7.102;2023-05-08T03:00:28;102174.84;;;9.32;nan
70758;BME280;59316;52.964;7.102;2023-05-08T03:05:55;102155.94;;;9.26;nan
70758;BME280;59316;52.964;7.102;2023-05-08T03:11:24;102159.13;;;9.07;nan
70758;BME280;59316;52.964;7.102;2023-05-08T03:16:54;102165.41;;;9.01;nan
70758;BME280;59316;52.964;7.102;2023-05-08T03:22:18;102175.41;;;8.88;nan
70758;BME280;59316;52.964;7.102;2023-05-08T03:27:40;102167.19;;;8.72;nan
70758;BME280;59316;52.964;7.102;2023-05-08T03:33:04;102169.94;;;8.68;nan
70758;BME280;59316;52.964;7.102;2023-05-08T03:38:27;102170.53;;;8.76;nan
70758;BME280;59316;52.964;7.102;2023-05-08T03:43:49;102171.97;;;8.86;nan
70758;BME280;59316;52.964;7.102;2023-05-08T03:49:11;102177.56;;;9.02;nan
70758;BME280;59316;52.964;7.102;2023-05-08T03:54:32;102166.25;;;9.03;nan
70758;BME280;59316;52.964;7.102;2023-05-08T04:00:05;102175.97;;;8.98;nan
70758;BME280;59316;52.964;7.102;2023-05-08T04:05:46;102181.72;;;9.08;nan
70758;BME280;59316;52.964;7.102;2023-05-08T04:11:26;102164.84;;;9.20;nan
70758;BME280;59316;52.964;7.102;2023-05-08T04:16:56;102173.84;;;9.36;nan
70758;BME280;59316;52.964;7.102;2023-05-08T04:22:24;102164.44;;;9.58;nan
70758;BME280;59316;52.964;7.102;2023-05-08T04:27:47;102167.38;;;9.74;nan
70758;BME280;59316;52.964;7.102;2023-05-08T04:33:10;102165.91;;;9.90;nan
70758;BME280;59316;52.964;7.102;2023-05-08T04:38:35;102166.59;;;9.95;nan
70758;BME280;59316;52.964;7.102;2023-05-08T04:43:58;102175.72;;;10.09;nan
70758;BME280;59316;52.964;7.102;2023-05-08T04:49:19;102178.69;;;10.23;nan
70758;BME280;59316;52.964;7.102;2023-05-08T04:54:41;102168.50;;;10.39;nan
70758;BME280;59316;52.964;7.102;2023-05-08T05:00:03;102160.78;;;10.60;nan
70758;BME280;59316;52.964;7.102;2023-05-08T05:05:29;102175.09;;;11.38;nan
70758;BME280;59316;52.964;7.102;2023-05-08T05:10:50;102175.69;;;12.26;nan
70758;BME280;59316;52.964;7.102;2023-05-08T05:16:12;102165.81;;;12.88;nan
70758;BME280;59316;52.964;7.102;2023-05-08T05:21:34;102155.03;;;12.75;nan
70758;BME280;59316;52.964;7.102;2023-05-08T05:26:55;102157.34;;;12.64;nan
70758;BME280;59316;52.964;7.102;2023-05-08T05:32:17;102169.78;;;13.14;nan
70758;BME280;59316;52.964;7.102;2023-05-08T05:37:39;102164.06;;;12.70;nan
70758;BME280;59316;52.964;7.102;2023-05-08T05:43:01;102175.00;;;12.41;nan
70758;BME280;59316;52.964;7.102;2023-05-08T05:48:24;102175.53;;;12.29;nan
70758;BME280;59316;52.964;7.102;2023-05-08T05:53:45;102181.19;;;12.20;nan
70758;BME280;59316;52.964;7.102;2023-05-08T05:59:07;102192.59;;;12.19;nan
70758;BME280;59316;52.964;7.102;2023-05-08T06:04:28;102186.31;;;12.80;nan
70758;BME280;59316;52.964;7.102;2023-05-08T06:09:50;102182.59;;;13.91;nan
70758;BME280;59316;52.964;7.102;2023-05-08T06:15:11;102170.22;;;14.42;nan
70758;BME280;59316;52.964;7.102;2023-05-08T06:20:36;102171.63;;;15.42;nan
70758;BME280;59316;52.964;7.102;2023-05-08T06:25:59;102172.69;;;16.26;nan
70758;BME280;59316;52.964;7.102;2023-05-08T06:31:20;102184.66;;;17.16;nan
70758;BME280;59316;52.964;7.102;2023-05-08T06:36:42;102177.28;;;17.34;nan
70758;BME280;59316;52.964;7.102;2023-05-08T06:42:03;102168.66;;;17.70;nan
70758;BME280;59316;52.964;7.102;2023-05-08T06:47:29;102169.91;;;18.16;nan
70758;BME280;59316;52.964;7.102;2023-05-08T06:52:51;102166.06;;;18.20;nan
70758;BME280;59316;52.964;7.102;2023-05-08T06:58:12;102163.38;;;18.70;nan
70758;BME280;59316;52.964;7.102;2023-05-08T07:03:34;102165.34;;;18.55;nan
70758;BME280;59316;52.964;7.102;2023-05-08T07:08:56;102163.88;;;18.76;nan
70758;BME280;59316;52.964;7.102;2023-05-08T07:14:17;102173.06;;;19.43;nan
70758;BME280;59316;52.964;7.102;2023-05-08T07:19:39;102163.31;;;18.83;nan
70758;BME280;59316;52.964;7.102;2023-05-08T07:25:00;102168.56;;;18.96;nan
70758;BME280;59316;52.964;7.102;2023-05-08T07:30:22;102153.03;;;20.52;nan
70758;BME280;59316;52.964;7.102;2023-05-08T07:35:43;102149.63;;;20.61;nan
70758;BME280;59316;52.964;7.102;2023-05-08T07:41:05;102155.50;;;20.76;nan
70758;BME280;59316;52.964;7.102;2023-05-08T07:46:26;102146.78;;;22.01;nan
70758;BME280;59316;52.964;7.102;2023-05-08T07:51:48;102135.53;;;22.48;nan
70758;BME280;59316;52.964;7.102;2023-05-08T07:57:10;102142.44;;;22.70;nan
70758;BME280;59316;52.964;7.102;2023-05-08T08:02:31;102143.00;;;23.13;nan
70758;BME280;59316;52.964;7.102;2023-05-08T08:07:53;102132.25;;;23.42;nan
70758;BME280;59316;52.964;7.102;2023-05-08T08:13:14;102131.97;;;23.55;nan
70758;BME280;59316;52.964;7.102;2023-05-08T08:18:36;102127.75;;;23.43;nan
70758;BME280;59316;52.964;7.102;2023-05-08T08:23:57;102134.91;;;23.52;nan
70758;BME280;59316;52.964;7.102;2023-05-08T08:29:19;102119.56;;;23.64;nan
70758;BME280;59316;52.964;7.102;2023-05-08T08:34:40;102128.13;;;23.68;nan
70758;BME280;59316;52.964;7.102;2023-05-08T08:40:02;102122.00;;;23.38;nan
70758;BME280;59316;52.964;7.102;2023-05-08T08:45:24;102118.94;;;23.33;nan
70758;BME280;59316;52.964;7.102;2023-05-08T08:50:46;102122.06;;;23.18;nan
70758;BME280;59316;52.964;7.102;2023-05-08T08:56:13;102120.41;;;23.65;nan
70758;BME280;59316;52.964;7.102;2023-05-08T09:01:38;102116.25;;;23.80;nan
70758;BME280;59316;52.964;7.102;2023-05-08T09:07:00;102111.69;;;24.18;nan
70758;BME280;59316;52.964;7.102;2023-05-08T09:12:22;102112.38;;;24.20;nan
70758;BME280;59316;52.964;7.102;2023-05-08T09:17:44;102115.75;;;24.22;nan
70758;BME280;59316;52.964;7.102;2023-05-08T09:23:06;102124.50;;;24.42;nan
70758;BME280;59316;52.964;7.102;2023-05-08T09:28:27;102113.44;;;25.18;nan
70758;BME280;59316;52.964;7.102;2023-05-08T09:33:49;102115.72;;;25.65;nan
70758;BME280;59316;52.964;7.102;2023-05-08T09:39:11;102113.75;;;24.97;nan
70758;BME280;59316;52.964;7.102;2023-05-08T09:44:52;102108.38;;;26.10;nan
70758;BME280;59316;52.964;7.102;2023-05-08T09:50:13;102098.88;;;25.81;nan
70758;BME280;59316;52.964;7.102;2023-05-08T09:55:47;102099.00;;;25.71;nan
70758;BME280;59316;52.964;7.102;2023-05-08T10:01:32;102095.31;;;26.15;nan
70758;BME280;59316;52.964;7.102;2023-05-08T10:06:58;102085.75;;;26.04;nan
70758;BME280;59316;52.964;7.102;2023-05-08T10:12:20;102083.84;;;26.64;nan
70758;BME280;59316;52.964;7.102;2023-05-08T10:18:04;102075.28;;;26.69;nan
70758;BME280;59316;52.964;7.102;2023-05-08T10:23:27;102067.78;;;27.37;nan
70758;BME280;59316;52.964;7.102;2023-05-08T10:29:12;102067.69;;;26.97;nan
70758;BME280;59316;52.964;7.102;2023-05-08T10:34:46;102065.78;;;27.31;nan
70758;BME280;59316;52.964;7.102;2023-05-08T10:40:12;102060.41;;;28.02;nan
70758;BME280;59316;52.964;7.102;2023-05-08T10:45:34;102059.22;;;28.13;nan
70758;BME280;59316;52.964;7.102;2023-05-08T10:51:17;102065.94;;;28.55;nan
70758;BME280;59316;52.964;7.102;2023-05-08T10:57:11;102055.94;;;28.26;nan
70758;BME280;59316;52.964;7.102;2023-05-08T11:02:32;102044.78;;;27.74;nan
70758;BME280;59316;52.964;7.102;2023-05-08T11:07:55;102046.69;;;27.65;nan
70758;BME280;59316;52.964;7.102;2023-05-08T11:13:19;102044.06;;;27.80;nan
70758;BME280;59316;52.964;7.102;2023-05-08T11:19:18;102041.03;;;28.76;nan
70758;BME280;59316;52.964;7.102;2023-05-08T11:24:52;102038.53;;;28.75;nan
70758;BME280;59316;52.964;7.102;2023-05-08T11:35:59;102038.03;;;28.71;nan
70758;BME280;59316;52.964;7.102;2023-05-08T11:41:33;102035.78;;;28.60;nan
70758;BME280;59316;52.964;7.102;2023-05-08T11:46:55;102025.91;;;29.35;nan
70758;BME280;59316;52.964;7.102;2023-05-08T11:52:17;102032.69;;;29.16;nan
70758;BME280;59316;52.964;7.102;2023-05-08T11:57:38;102040.00;;;28.39;nan
70758;BME280;59316;52.964;7.102;2023-05-08T12:03:05;102025.75;;;29.37;nan
70758;BME280;59316;52.964;7.102;2023-05-08T12:08:27;102029.16;;;29.60;nan
70758;BME280;59316;52.964;7.102;2023-05-08T12:13:50;102031.59;;;28.80;nan
70758;BME280;59316;52.964;7.102;2023-05-08T12:19:12;102024.06;;;29.21;nan
70758;BME280;59316;52.964;7.102;2023-05-08T12:24:34;102031.13;;;28.77;nan
70758;BME280;59316;52.964;7.102;2023-05-08T12:29:56;102014.97;;;28.39;nan
70758;BME280;59316;52.964;7.102;2023-05-08T12:35:18;102018.31;;;28.79;nan
70758;BME280;59316;52.964;7.102;2023-05-08T12:40:43;102008.09;;;29.04;nan
70758;BME280;59316;52.964;7.102;2023-05-08T12:46:09;102011.78;;;29.48;nan
70758;BME280;59316;52.964;7.102;2023-05-08T12:51:31;101995.66;;;29.18;nan
70758;BME280;59316;52.964;7.102;2023-05-08T12:56:52;102003.34;;;28.23;nan
70758;BME280;59316;52.964;7.102;2023-05-08T13:02:20;101999.19;;;28.74;nan
70758;BME280;59316;52.964;7.102;2023-05-08T13:07:42;101997.69;;;28.33;nan
70758;BME280;59316;52.964;7.102;2023-05-08T13:13:03;101986.34;;;28.46;nan
70758;BME280;59316;52.964;7.102;2023-05-08T13:18:26;101990.44;;;27.24;nan
70758;BME280;59316;52.964;7.102;2023-05-08T13:23:48;101980.97;;;26.97;nan
70758;BME280;59316;52.964;7.102;2023-05-08T13:29:09;101983.56;;;26.65;nan
70758;BME280;59316;52.964;7.102;2023-05-08T13:34:31;101977.38;;;26.32;nan
70758;BME280;59316;52.964;7.102;2023-05-08T13:39:53;101968.00;;;26.28;nan
70758;BME280;59316;52.964;7.102;2023-05-08T13:45:14;101961.94;;;27.15;nan
70758;BME280;59316;52.964;7.102;2023-05-08T13:50:36;101952.88;;;28.25;nan
70758;BME280;59316;52.964;7.102;2023-05-08T13:55:57;101952.69;;;28.95;nan
70758;BME280;59316;52.964;7.102;2023-05-08T14:01:19;101948.94;;;29.41;nan
70758;BME280;59316;52.964;7.102;2023-05-08T14:06:46;101937.59;;;28.26;nan
70758;BME280;59316;52.964;7.102;2023-05-08T14:12:08;101932.38;;;28.01;nan
70758;BME280;59316;52.964;7.102;2023-05-08T14:17:29;101927.63;;;27.88;nan
70758;BME280;59316;52.964;7.102;2023-05-08T14:22:51;101917.63;;;27.97;nan
70758;BME280;59316;52.964;7.102;2023-05-08T14:28:13;101925.44;;;28.30;nan
70758;BME280;59316;52.964;7.102;2023-05-08T14:33:35;101931.59;;;27.46;nan
70758;BME280;59316;52.964;7.102;2023-05-08T14:38:56;101934.09;;;26.60;nan
70758;BME280;59316;52.964;7.102;2023-05-08T14:44:18;101928.06;;;25.83;nan
70758;BME280;59316;52.964;7.102;2023-05-08T14:49:39;101932.97;;;25.29;nan
70758;BME280;59316;52.964;7.102;2023-05-08T14:55:01;101931.53;;;25.08;nan
70758;BME280;59316;52.964;7.102;2023-05-08T15:00:23;101930.16;;;24.96;nan
70758;BME280;59316;52.964;7.102;2023-05-08T15:05:45;101928.06;;;25.16;nan
70758;BME280;59316;52.964;7.102;2023-05-08T15:11:06;101927.50;;;25.04;nan
70758;BME280;59316;52.964;7.102;2023-05-08T15:16:28;101925.13;;;24.92;nan
70758;BME280;59316;52.964;7.102;2023-05-08T15:21:50;101924.03;;;24.77;nan
70758;BME280;59316;52.964;7.102;2023-05-08T15:27:11;101920.50;;;24.42;nan
70758;BME280;59316;52.964;7.102;2023-05-08T15:32:33;101923.31;;;24.22;nan
70758;BME280;59316;52.964;7.102;2023-05-08T15:37:55;101944.66;;;23.96;nan
70758;BME280;59316;52.964;7.102;2023-05-08T15:43:16;101937.84;;;22.82;nan
70758;BME280;59316;52.964;7.102;2023-05-08T15:48:38;101945.78;;;22.25;nan
70758;BME280;59316;52.964;7.102;2023-05-08T15:53:59;101934.53;;;22.11;nan
70758;BME280;59316;52.964;7.102;2023-05-08T15:59:21;101940.00;;;22.49;nan
70758;BME280;59316;52.964;7.102;2023-05-08T16:04:42;101938.94;;;22.70;nan
70758;BME280;59316;52.964;7.102;2023-05-08T16:10:04;101933.78;;;22.68;nan
70758;BME280;59316;52.964;7.102;2023-05-08T16:15:26;101927.47;;;23.07;nan
70758;BME280;59316;52.964;7.102;2023-05-08T16:20:48;101921.22;;;23.26;nan
70758;BME280;59316;52.964;7.102;2023-05-08T16:26:10;101927.47;;;23.07;nan
70758;BME280;59316;52.964;7.102;2023-05-08T16:31:31;101946.03;;;22.51;nan
70758;BME280;59316;52.964;7.102;2023-05-08T16:36:53;101932.41;;;21.15;nan
70758;BME280;59316;52.964;7.102;2023-05-08T16:42:15;101930.28;;;20.36;nan
70758;BME280;59316;52.964;7.102;2023-05-08T16:47:36;101913.72;;;20.23;nan
70758;BME280;59316;52.964;7.102;2023-05-08T16:52:58;101934.63;;;20.16;nan
70758;BME280;59316;52.964;7.102;2023-05-08T16:58:19;101946.41;;;20.23;nan
70758;BME280;59316;52.964;7.102;2023-05-08T17:03:41;101936.69;;;20.12;nan
70758;BME280;59316;52.964;7.102;2023-05-08T17:09:03;101942.97;;;20.11;nan
70758;BME280;59316;52.964;7.102;2023-05-08T17:14:24;101936.41;;;19.94;nan
70758;BME280;59316;52.964;7.102;2023-05-08T17:19:45;101931.72;;;19.75;nan
70758;BME280;59316;52.964;7.102;2023-05-08T17:25:07;101946.34;;;19.58;nan
70758;BME280;59316;52.964;7.102;2023-05-08T17:30:29;101937.22;;;19.51;nan
70758;BME280;59316;52.964;7.102;2023-05-08T17:35:50;101931.44;;;19.46;nan
70758;BME280;59316;52.964;7.102;2023-05-08T17:41:12;101933.25;;;19.34;nan
70758;BME280;59316;52.964;7.102;2023-05-08T17:46:34;101934.47;;;19.18;nan
70758;BME280;59316;52.964;7.102;2023-05-08T17:51:55;101930.16;;;19.17;nan
70758;BME280;59316;52.964;7.102;2023-05-08T17:57:17;101923.63;;;19.22;nan
70758;BME280;59316;52.964;7.102;2023-05-08T18:02:38;101924.81;;;19.29;nan
70758;BME280;59316;52.964;7.102;2023-05-08T18:08:00;101923.72;;;19.31;nan
70758;BME280;59316;52.964;7.102;2023-05-08T18:13:21;101932.28;;;19.35;nan
70758;BME280;59316;52.964;7.102;2023-05-08T18:18:43;101932.28;;;19.46;nan
70758;BME280;59316;52.964;7.102;2023-05-08T18:24:05;101938.78;;;19.42;nan
70758;BME280;59316;52.964;7.102;2023-05-08T18:29:26;101936.75;;;19.46;nan
70758;BME280;59316;52.964;7.102;2023-05-08T18:34:48;101936.63;;;19.47;nan
70758;BME280;59316;52.964;7.102;2023-05-08T18:40:10;101957.50;;;19.29;nan
70758;BME280;59316;52.964;7.102;2023-05-08T18:45:32;101950.38;;;19.30;nan
70758;BME280;59316;52.964;7.102;2023-05-08T18:50:53;101952.19;;;19.29;nan
70758;BME280;59316;52.964;7.102;2023-05-08T18:56:15;101939.41;;;19.12;nan
70758;BME280;59316;52.964;7.102;2023-05-08T19:01:36;101933.03;;;18.92;nan
70758;BME280;59316;52.964;7.102;2023-05-08T19:06:58;101929.50;;;18.80;nan
70758;BME280;59316;52.964;7.102;2023-05-08T19:12:20;101924.28;;;18.67;nan
70758;BME280;59316;52.964;7.102;2023-05-08T19:17:41;101933.19;;;18.54;nan
70758;BME280;59316;52.964;7.102;2023-05-08T19:23:04;101926.19;;;18.42;nan
70758;BME280;59316;52.964;7.102;2023-05-08T19:28:25;101949.97;;;18.31;nan
70758;BME280;59316;52.964;7.102;2023-05-08T19:33:47;101982.31;;;18.23;nan
70758;BME280;59316;52.964;7.102;2023-05-08T19:39:09;101956.63;;;18.12;nan
70758;BME280;59316;52.964;7.102;2023-05-08T19:44:30;101959.34;;;17.99;nan
70758;BME280;59316;52.964;7.102;2023-05-08T19:49:52;101945.22;;;17.87;nan
70758;BME280;59316;52.964;7.102;2023-05-08T19:55:15;101945.88;;;17.78;nan
70758;BME280;59316;52.964;7.102;2023-05-08T20:00:36;101940.91;;;17.73;nan
70758;BME280;59316;52.964;7.102;2023-05-08T20:05:58;101939.13;;;17.61;nan
70758;BME280;59316;52.964;7.102;2023-05-08T20:11:19;101938.75;;;17.54;nan
70758;BME280;59316;52.964;7.102;2023-05-08T20:16:41;101923.75;;;17.55;nan
70758;BME280;59316;52.964;7.102;2023-05-08T20:22:03;101922.88;;;17.54;nan
70758;BME280;59316;52.964;7.102;2023-05-08T20:27:24;101910.84;;;17.50;nan
70758;BME280;59316;52.964;7.102;2023-05-08T20:32:46;101898.59;;;17.36;nan
70758;BME280;59316;52.964;7.102;2023-05-08T20:38:07;101913.28;;;17.40;nan
70758;BME280;59316;52.964;7.102;2023-05-08T20:43:29;101908.63;;;17.44;nan
70758;BME280;59316;52.964;7.102;2023-05-08T20:48:50;101892.38;;;17.37;nan
70758;BME280;59316;52.964;7.102;2023-05-08T20:54:12;101896.34;;;17.43;nan
70758;BME280;59316;52.964;7.102;2023-05-08T20:59:34;101886.00;;;17.40;nan
70758;BME280;59316;52.964;7.102;2023-05-08T21:04:55;101884.56;;;17.36;nan
70758;BME280;59316;52.964;7.102;2023-05-08T21:10:16;101880.75;;;17.27;nan
70758;BME280;59316;52.964;7.102;2023-05-08T21:15:38;101873.69;;;17.15;nan
70758;BME280;59316;52.964;7.102;2023-05-08T21:21:00;101871.13;;;17.26;nan
70758;BME280;59316;52.964;7.102;2023-05-08T21:26:21;101863.66;;;17.20;nan
70758;BME280;59316;52.964;7.102;2023-05-08T21:31:43;101873.16;;;17.22;nan
70758;BME280;59316;52.964;7.102;2023-05-08T21:37:04;101872.75;;;17.16;nan
70758;BME280;59316;52.964;7.102;2023-05-08T21:42:26;101868.72;;;17.10;nan
70758;BME280;59316;52.964;7.102;2023-05-08T21:47:47;101870.53;;;17.10;nan
70758;BME280;59316;52.964;7.102;2023-05-08T21:53:09;101865.69;;;17.03;nan
70758;BME280;59316;52.964;7.102;2023-05-08T21:58:30;101842.56;;;16.94;nan
70758;BME280;59316;52.964;7.102;2023-05-08T22:03:52;101855.09;;;17.16;nan
70758;BME280;59316;52.964;7.102;2023-05-08T22:09:13;101838.22;;;16.93;nan
70758;BME280;59316;52.964;7.102;2023-05-08T22:14:35;101844.56;;;16.90;nan
70758;BME280;59316;52.964;7.102;2023-05-08T22:19:56;101836.25;;;16.84;nan
70758;BME280;59316;52.964;7.102;2023-05-08T22:25:18;101837.09;;;16.71;nan
70758;BME280;59316;52.964;7.102;2023-05-08T22:30:39;101828.53;;;16.55;nan
70758;BME280;59316;52.964;7.102;2023-05-08T22:36:01;101830.63;;;16.50;nan
70758;BME280;59316;52.964;7.102;2023-05-08T22:41:23;101820.50;;;16.31;nan
70758;BME280;59316;52.964;7.102;2023-05-08T22:46:44;101814.16;;;16.33;nan
70758;BME280;59316;52.964;7.102;2023-05-08T22:52:07;101807.31;;;16.31;nan
70758;BME280;59316;52.964;7.102;2023-05-08T22:57:29;101805.53;;;16.44;nan
70758;BME280;59316;52.964;7.102;2023-05-08T23:02:50;101796.84;;;16.29;nan
70758;BME280;59316;52.964;7.102;2023-05-08T23:08:12;101790.50;;;16.32;nan
70758;BME280;59316;52.964;7.102;2023-05-08T23:13:33;101793.78;;;16.22;nan
70758;BME280;59316;52.964;7.102;2023-05-08T23:26:02;101784.41;;;16.18;nan
70758;BME280;59316;52.964;7.102;2023-05-08T23:31:23;101778.91;;;16.21;nan
70758;BME280;59316;52.964;7.102;2023-05-08T23:36:45;101772.03;;;16.19;nan
70758;BME280;59316;52.964;7.102;2023-05-08T23:42:07;101761.72;;;16.16;nan
70758;BME280;59316;52.964;7.102;2023-05-08T23:47:28;101761.06;;;15.99;nan
70758;BME280;59316;52.964;7.102;2023-05-08T23:52:50;101767.69;;;15.92;nan
70758;BME280;59316;52.964;7.102;2023-05-08T23:58:11;101769.81;;;15.87;nan
